首页
METAR-TAF:

METAR-TAF

机场 :

马赛普罗旺斯机场

马赛, 法国

纬度: 43-27N, 经度: 005-14E, 海拔: 6米

当前天气观测

该预报发布于42分钟前的20:00 UTC
风速16节,风向西北
温度 10°C
湿度 62%
气压 1003 hPa
能见度10公里或以上
1500米以下无云,无积雨云

METAR: LFML 122000Z AUTO 31016KT CAVOK 10/03 Q1003 TEMPO 32025G35KT

时间: 21:42 (20:42 UTC)

预报

该预报发布于4小时和37分钟前的16:05 UTC
预报有效从12日的 16点(UTC)到 13日的 21点(UTC)
风速20节,风向西北
能见度10公里或以上
1500米以下无云,无积雨云
短暂存在
从 12日的 16点(UTC)到 12日的 22点(UTC)
风速25节,风向西北,有时为35节阵风
短暂存在
从 13日的 06点(UTC)到 13日的 11点(UTC)
风速25节,风向西北,有时为35节阵风
短暂存在
从 13日的 14点(UTC)到 13日的 20点(UTC)
风速25节,风向西北,有时为35节阵风

TAF: LFML 121605Z 1216/1321 32020KT CAVOK TX12/1313Z TN05/1303Z TEMPO 1216/1222 32025G35KT TEMPO 1306/1311 32025G35KT TEMPO 1314/1320 32025G35KT

超过4000个机场的气象观测和天气预报(METAR&TAF报告)。

可查询的气象台以黄色和红色小点在地图上表示。

将鼠标移到小点上方,可查看气象台名称。

然后点击查看天气观测和预报。

如需切换地图:点击带黑十字的绿色按钮放大地图;点击带横线的绿色按钮缩小地图;或者点击绿色箭头查看邻近地区的地图。


METAR-TAF: